Time;durP1;ratioP1;P1;durP2;ratioP2;P2;SDS_P1;SDS_P2;PMS_P1;PMS_P2;Temp;Humidity;BMP_temperature;BMP_pressure;BME280_temperature;BME280_humidity;BME280_pressure;Samples;Min_cycle;Max_cycle;Signal;HPM_P1;HPM_P2
2022/06/03 00:02:02;;;;;;;2.60;1.35;;;15.50;67.80;;;;;;5033501;28;20061;-78
2022/06/03 00:04:37;;;;;;;4.07;1.48;;;15.40;68.10;;;;;;4993176;28;20025;-78
2022/06/03 00:07:37;;;;;;;4.47;1.40;;;15.40;68.00;;;;;;5033947;28;20045;-77
2022/06/03 00:10:08;;;;;;;3.75;1.70;;;15.40;68.60;;;;;;5016131;28;20108;-78
2022/06/03 00:13:15;;;;;;;4.07;1.95;;;15.40;68.70;;;;;;5015050;28;20031;-78
2022/06/03 00:15:54;;;;;;;3.20;1.50;;;15.40;69.10;;;;;;5015808;28;20056;-78
2022/06/03 00:18:48;;;;;;;3.72;1.60;;;15.40;69.00;;;;;;5033798;28;20032;-77
2022/06/03 00:21:34;;;;;;;3.25;1.52;;;15.30;69.30;;;;;;5033202;28;20358;-78
2022/06/03 00:24:14;;;;;;;3.40;1.55;;;15.30;69.40;;;;;;5015903;28;20480;-77
2022/06/03 00:26:58;;;;;;;5.40;1.70;;;15.20;69.80;;;;;;5016211;28;20021;-77
2022/06/03 00:29:54;;;;;;;3.33;1.65;;;15.20;70.10;;;;;;5033623;28;20093;-79
2022/06/03 00:32:23;;;;;;;4.13;1.73;;;15.10;70.40;;;;;;5032892;28;20021;-79
2022/06/03 00:34:54;;;;;;;3.45;1.75;;;15.10;70.50;;;;;;5033747;28;20017;-78
2022/06/03 00:37:53;;;;;;;5.18;2.88;;;15.00;70.90;;;;;;5015785;28;20028;-78
2022/06/03 00:40:24;;;;;;;3.65;2.10;;;15.00;71.30;;;;;;5015396;28;20097;-78
2022/06/03 00:43:14;;;;;;;3.70;1.58;;;15.00;71.50;;;;;;5032912;28;20079;-77
2022/06/03 00:46:01;;;;;;;3.75;2.00;;;14.90;71.50;;;;;;5033301;28;20076;-78
2022/06/03 00:48:56;;;;;;;4.80;2.50;;;14.90;71.80;;;;;;5015441;28;20028;-77
2022/06/03 00:51:35;;;;;;;4.22;1.90;;;14.90;72.00;;;;;;5015141;28;20383;-77
2022/06/03 00:54:20;;;;;;;6.55;2.25;;;14.80;72.00;;;;;;5015471;28;20520;-77
2022/06/03 00:56:54;;;;;;;3.88;1.90;;;14.80;72.40;;;;;;5015405;28;20075;-77
2022/06/03 00:59:23;;;;;;;6.10;2.25;;;14.80;72.50;;;;;;5015277;28;20484;-77
2022/06/03 01:02:00;;;;;;;4.88;1.92;;;14.80;72.70;;;;;;5015041;28;20033;-78
2022/06/03 01:04:51;;;;;;;4.18;2.33;;;14.70;73.20;;;;;;5014982;28;20075;-77
2022/06/03 01:07:34;;;;;;;7.45;5.50;;;14.70;73.40;;;;;;5015301;28;20013;-77
2022/06/03 01:10:09;;;;;;;11.30;7.20;;;14.70;73.50;;;;;;5015225;28;20022;-77
2022/06/03 01:13:00;;;;;;;10.40;8.02;;;14.70;73.80;;;;;;5015146;28;20022;-78
2022/06/03 01:15:41;;;;;;;12.32;7.55;;;14.70;73.80;;;;;;5033172;28;20014;-78
2022/06/03 01:18:37;;;;;;;6.85;4.47;;;14.70;74.20;;;;;;5014915;28;20091;-79
2022/06/03 01:21:14;;;;;;;6.13;4.22;;;14.60;74.10;;;;;;5014886;28;20091;-79
2022/06/03 01:23:58;;;;;;;5.57;3.40;;;14.60;74.20;;;;;;5017839;28;20457;-79
2022/06/03 01:26:53;;;;;;;5.07;2.95;;;14.60;74.50;;;;;;5018967;28;20428;-78
2022/06/03 01:29:52;;;;;;;5.07;2.20;;;14.60;74.50;;;;;;5018876;28;20461;-77
2022/06/03 01:32:30;;;;;;;7.00;2.17;;;14.60;74.70;;;;;;5018942;28;20026;-77
2022/06/03 01:35:05;;;;;;;4.28;2.45;;;14.60;74.70;;;;;;5036401;28;20026;-77
2022/06/03 01:37:33;;;;;;;5.90;2.30;;;14.60;74.90;;;;;;5019003;28;20025;-78
2022/06/03 01:40:26;;;;;;;5.10;2.65;;;14.60;75.20;;;;;;5018765;28;20025;-78
2022/06/03 01:43:22;;;;;;;4.65;2.35;;;14.60;75.10;;;;;;5036416;28;20037;-78
2022/06/03 01:46:02;;;;;;;3.05;1.63;;;14.60;75.30;;;;;;5018713;28;20361;-79
2022/06/03 01:48:50;;;;;;;4.20;1.98;;;14.60;75.40;;;;;;5036830;28;20365;-80
2022/06/03 01:51:44;;;;;;;3.63;2.05;;;14.60;75.40;;;;;;5018587;28;20073;-80
2022/06/03 01:54:25;;;;;;;5.25;2.60;;;14.60;75.60;;;;;;5018154;28;20013;-79
2022/06/03 01:57:09;;;;;;;4.15;2.13;;;14.60;75.70;;;;;;5018349;28;20018;-79
2022/06/03 01:59:41;;;;;;;4.35;2.30;;;14.60;75.70;;;;;;5036370;28;20057;-79
2022/06/03 02:02:25;;;;;;;4.70;2.25;;;14.60;75.90;;;;;;5018199;28;20037;-79
2022/06/03 02:05:25;;;;;;;3.58;1.73;;;14.60;75.90;;;;;;5036179;28;20021;-79
2022/06/03 02:07:59;;;;;;;4.18;2.03;;;14.60;76.00;;;;;;5018514;28;20029;-79
2022/06/03 02:10:29;;;;;;;3.80;2.10;;;14.60;76.00;;;;;;5018079;28;20033;-78
2022/06/03 02:13:13;;;;;;;4.18;1.90;;;14.60;76.00;;;;;;5018332;28;20021;-78
2022/06/03 02:16:07;;;;;;;5.30;2.90;;;14.60;76.10;;;;;;5018020;28;20018;-79
2022/06/03 02:18:57;;;;;;;5.47;2.03;;;14.60;76.30;;;;;;5018026;28;20090;-79
2022/06/03 02:21:38;;;;;;;4.85;1.80;;;14.60;76.20;;;;;;5035580;28;20354;-79
2022/06/03 02:24:36;;;;;;;4.60;2.05;;;14.60;76.20;;;;;;5017795;28;20527;-79
2022/06/03 02:27:30;;;;;;;3.40;1.80;;;14.60;76.40;;;;;;5035467;28;20040;-79
2022/06/03 02:30:29;;;;;;;3.72;2.08;;;14.60;76.30;;;;;;5035265;28;20055;-78
2022/06/03 02:33:13;;;;;;;5.22;2.35;;;14.60;76.40;;;;;;5035501;28;20104;-79
2022/06/03 02:35:52;;;;;;;5.00;2.22;;;14.60;76.30;;;;;;5034714;28;20065;-78
2022/06/03 02:38:46;;;;;;;3.40;1.65;;;14.60;76.30;;;;;;5017922;28;20416;-79
2022/06/03 02:41:30;;;;;;;4.07;2.15;;;14.60;76.40;;;;;;5017613;28;20029;-78
2022/06/03 02:44:26;;;;;;;4.82;2.20;;;14.60;76.50;;;;;;5017435;28;20049;-78
2022/06/03 02:47:07;;;;;;;4.60;2.10;;;14.60;76.50;;;;;;5035791;28;20032;-78
2022/06/03 02:49:56;;;;;;;5.82;1.85;;;14.60;76.50;;;;;;5017520;28;20029;-78
2022/06/03 02:52:43;;;;;;;5.43;2.05;;;14.60;76.60;;;;;;5017538;28;20022;-79
2022/06/03 02:55:21;;;;;;;4.63;2.40;;;14.60;76.60;;;;;;5017406;28;20022;-79
2022/06/03 02:58:11;;;;;;;5.68;2.50;;;14.50;76.50;;;;;;5035017;28;20064;-79
2022/06/03 03:01:09;;;;;;;3.85;2.22;;;14.50;76.80;;;;;;5008266;28;20155;-78
2022/06/03 03:03:48;;;;;;;5.85;2.45;;;14.60;76.70;;;;;;5009263;28;20079;-79
2022/06/03 03:06:42;;;;;;;5.20;2.05;;;14.50;76.90;;;;;;5034840;28;20113;-79
2022/06/03 03:09:36;;;;;;;4.93;2.53;;;14.50;76.90;;;;;;5034959;28;20364;-81
2022/06/03 03:12:11;;;;;;;5.25;2.22;;;14.50;76.90;;;;;;5016985;28;20049;-80
2022/06/03 03:15:12;;;;;;;5.07;1.90;;;14.50;76.80;;;;;;5017229;28;20076;-80
2022/06/03 03:18:12;;;;;;;4.38;2.05;;;14.50;76.70;;;;;;5010496;28;20117;-80
2022/06/03 03:21:08;;;;;;;5.25;2.30;;;14.40;76.90;;;;;;5034929;28;20053;-79
2022/06/03 03:23:55;;;;;;;4.75;2.60;;;14.40;76.90;;;;;;4997306;28;20128;-78
2022/06/03 03:26:42;;;;;;;3.35;1.95;;;14.40;77.00;;;;;;4997228;28;20029;-78
2022/06/03 03:29:08;;;;;;;4.10;2.03;;;14.30;76.80;;;;;;4996872;28;20036;-78
2022/06/03 03:32:08;;;;;;;4.50;2.35;;;14.30;77.10;;;;;;5014465;28;20097;-81
2022/06/03 03:34:34;;;;;;;5.65;2.22;;;14.30;77.30;;;;;;4947036;28;20033;-80
2022/06/03 03:37:14;;;;;;;4.22;2.17;;;14.30;77.40;;;;;;4996942;28;20080;-80
2022/06/03 03:40:10;;;;;;;3.97;2.03;;;14.20;77.30;;;;;;5014252;28;20029;-80
2022/06/03 03:43:01;;;;;;;4.25;1.90;;;14.30;77.40;;;;;;4996967;28;20034;-80
2022/06/03 03:45:47;;;;;;;4.07;2.15;;;14.20;77.40;;;;;;4996626;28;20068;-79
2022/06/03 03:48:41;;;;;;;4.38;2.20;;;14.20;77.50;;;;;;4996106;28;20013;-80
2022/06/03 03:51:32;;;;;;;4.55;2.13;;;14.30;77.80;;;;;;5014693;28;20540;-80
2022/06/03 03:54:19;;;;;;;4.68;2.47;;;14.30;77.70;;;;;;5014280;28;20102;-79
2022/06/03 03:56:59;;;;;;;5.75;2.08;;;14.30;77.60;;;;;;5013882;28;20029;-80
2022/06/03 04:00:03;;;;;;;4.30;1.90;;;14.30;77.60;;;;;;4996662;28;20033;-79
2022/06/03 04:02:34;;;;;;;3.03;1.83;;;14.30;77.70;;;;;;4996526;28;20053;-79
2022/06/03 04:05:19;;;;;;;3.85;1.92;;;14.30;77.50;;;;;;4996174;28;20084;-80
2022/06/03 04:08:03;;;;;;;4.40;2.38;;;14.30;77.60;;;;;;5014469;28;20022;-79
2022/06/03 04:10:46;;;;;;;4.82;2.17;;;14.20;77.60;;;;;;5013761;28;20033;-78
2022/06/03 04:13:42;;;;;;;3.67;1.77;;;14.20;77.80;;;;;;4995908;28;20017;-79
2022/06/03 04:16:27;;;;;;;5.20;2.10;;;14.20;77.90;;;;;;4996246;28;20018;-79
2022/06/03 04:19:17;;;;;;;5.32;2.58;;;14.10;77.90;;;;;;5014022;28;20025;-78
2022/06/03 04:22:12;;;;;;;7.80;2.13;;;14.10;78.00;;;;;;5013592;28;20088;-78
2022/06/03 04:25:05;;;;;;;6.60;2.67;;;14.10;78.00;;;;;;5005991;28;20492;-79
2022/06/03 04:27:30;;;;;;;4.57;2.42;;;14.10;77.90;;;;;;5030268;28;20040;-78
2022/06/03 04:30:11;;;;;;;5.97;2.40;;;14.20;78.20;;;;;;5033213;28;20025;-79
2022/06/03 04:33:04;;;;;;;4.43;2.25;;;14.10;78.10;;;;;;5015710;28;20078;-79
2022/06/03 04:36:04;;;;;;;4.00;2.38;;;14.10;78.30;;;;;;5015562;28;20061;-79
2022/06/03 04:38:29;;;;;;;4.50;1.70;;;14.10;78.30;;;;;;5015548;28;20017;-78
2022/06/03 04:41:19;;;;;;;4.57;2.53;;;14.10;78.90;;;;;;5033634;28;20037;-78
2022/06/03 04:44:02;;;;;;;6.32;3.10;;;14.10;78.50;;;;;;5033219;28;20045;-78
2022/06/03 04:47:17;;;;;;;6.18;2.65;;;14.10;78.60;;;;;;5028238;28;20038;-79
2022/06/03 04:49:57;;;;;;;6.18;2.78;;;14.10;78.60;;;;;;5013284;28;20545;-79
2022/06/03 04:52:59;;;;;;;4.28;2.13;;;14.10;78.60;;;;;;5026144;28;20453;-78
2022/06/03 04:55:53;;;;;;;5.82;2.45;;;14.10;78.80;;;;;;5014029;28;20068;-80
2022/06/03 04:58:51;;;;;;;6.43;3.17;;;14.20;78.90;;;;;;5016977;28;20461;-79
2022/06/03 05:01:22;;;;;;;5.28;2.28;;;14.20;78.80;;;;;;5037525;28;20029;-79
2022/06/03 05:04:06;;;;;;;5.88;2.75;;;14.20;78.80;;;;;;5037227;28;20029;-80
2022/06/03 05:07:07;;;;;;;5.20;2.60;;;14.20;78.90;;;;;;5019388;28;20021;-81
2022/06/03 05:10:10;;;;;;;5.78;3.20;;;14.30;78.90;;;;;;4996138;28;20098;-79
2022/06/03 05:12:54;;;;;;;7.57;3.10;;;14.30;78.70;;;;;;5019517;28;20164;-79
2022/06/03 05:15:42;;;;;;;6.55;3.40;;;14.30;78.70;;;;;;5020686;28;20067;-79
2022/06/03 05:18:26;;;;;;;6.07;3.33;;;14.30;78.80;;;;;;5018978;28;20361;-79
2022/06/03 05:21:24;;;;;;;6.28;3.03;;;14.30;79.00;;;;;;5037368;28;20045;-80
2022/06/03 05:23:56;;;;;;;5.22;2.55;;;14.30;78.90;;;;;;4986975;28;20038;-79
2022/06/03 05:26:48;;;;;;;4.70;2.88;;;14.30;78.80;;;;;;5018770;28;20029;-78
2022/06/03 05:29:16;;;;;;;5.90;2.90;;;14.30;78.90;;;;;;5036513;28;20517;-80
2022/06/03 05:32:03;;;;;;;6.40;2.95;;;14.40;78.80;;;;;;5019288;28;20017;-80
2022/06/03 05:34:47;;;;;;;5.13;3.00;;;14.40;78.90;;;;;;5019051;28;20031;-79
2022/06/03 05:38:00;;;;;;;3.40;2.35;;;14.40;78.90;;;;;;5018643;28;20017;-79
2022/06/03 05:40:47;;;;;;;4.80;2.50;;;14.40;78.90;;;;;;5018959;28;20048;-79
2022/06/03 05:43:33;;;;;;;6.07;2.35;;;14.50;78.80;;;;;;5018286;28;20495;-81
2022/06/03 05:46:23;;;;;;;8.25;3.28;;;14.50;78.70;;;;;;5018376;28;20040;-81
2022/06/03 05:49:19;;;;;;;8.95;3.05;;;14.50;78.80;;;;;;5018532;28;20555;-81
2022/06/03 05:51:51;;;;;;;5.15;3.03;;;14.50;78.80;;;;;;5018410;28;20057;-81
2022/06/03 05:54:24;;;;;;;3.72;2.45;;;14.60;78.80;;;;;;5035007;28;20013;-81
2022/06/03 05:57:03;;;;;;;5.18;3.22;;;14.60;78.80;;;;;;5029674;28;20068;-81
2022/06/03 05:59:58;;;;;;;4.57;3.10;;;14.60;78.70;;;;;;5029507;28;20021;-81
2022/06/03 06:02:48;;;;;;;4.78;2.85;;;14.60;78.50;;;;;;5017345;28;20418;-81
2022/06/03 06:05:39;;;;;;;6.28;2.85;;;14.70;78.50;;;;;;5017469;28;20032;-83
2022/06/03 06:08:32;;;;;;;5.65;3.25;;;14.70;78.50;;;;;;5034838;28;20029;-81
2022/06/03 06:11:19;;;;;;;4.65;2.80;;;14.70;78.50;;;;;;5017775;28;20507;-81
2022/06/03 06:13:45;;;;;;;8.38;3.92;;;14.80;78.40;;;;;;5018197;28;20067;-82
2022/06/03 06:16:22;;;;;;;6.32;2.95;;;14.80;78.60;;;;;;5018295;28;20427;-81
2022/06/03 06:19:09;;;;;;;9.23;3.22;;;14.80;78.60;;;;;;5051527;28;20447;-81
2022/06/03 06:21:57;;;;;;;7.38;3.10;;;14.90;78.60;;;;;;5018215;28;20029;-80
2022/06/03 06:24:35;;;;;;;4.68;2.42;;;14.90;78.70;;;;;;5016622;28;20021;-83
2022/06/03 06:27:10;;;;;;;6.05;3.05;;;15.00;78.70;;;;;;5032588;28;20013;-83
2022/06/03 06:30:01;;;;;;;7.20;3.03;;;15.00;78.50;;;;;;5016722;28;20366;-83
2022/06/03 06:32:45;;;;;;;6.95;3.28;;;15.10;78.50;;;;;;5017966;28;20083;-83
2022/06/03 06:35:30;;;;;;;;;;;15.00;78.40;;;;;;5018301;28;20028;-82
2022/06/03 06:38:33;;;;;;;4.28;2.50;;;15.10;78.40;;;;;;5018249;28;20230;-81
2022/06/03 06:41:23;;;;;;;6.07;3.13;;;15.10;78.40;;;;;;5012876;28;20084;-83
2022/06/03 06:44:10;;;;;;;5.75;2.90;;;15.20;78.40;;;;;;5016109;28;20044;-80
2022/06/03 06:46:38;;;;;;;4.97;2.63;;;15.20;78.30;;;;;;5014224;28;20026;-81
2022/06/03 06:49:22;;;;;;;6.85;3.33;;;15.30;78.30;;;;;;5006003;28;20041;-82
2022/06/03 06:52:06;;;;;;;5.80;2.70;;;15.30;78.30;;;;;;5011023;28;20041;-81
2022/06/03 06:54:35;;;;;;;6.35;2.83;;;15.30;78.20;;;;;;5016518;28;20037;-82
2022/06/03 06:57:18;;;;;;;5.75;3.08;;;15.40;78.10;;;;;;5017352;28;20350;-82
2022/06/03 07:00:13;;;;;;;4.13;2.53;;;15.40;78.10;;;;;;5019386;28;20346;-81
2022/06/03 07:03:10;;;;;;;6.03;2.80;;;15.50;78.10;;;;;;5017413;28;20049;-82
2022/06/03 07:06:17;;;;;;;5.75;2.72;;;15.50;78.20;;;;;;5017045;28;20021;-80
2022/06/03 07:09:09;;;;;;;5.40;2.67;;;15.60;78.30;;;;;;5035158;28;20477;-81
2022/06/03 07:11:51;;;;;;;5.85;2.97;;;15.70;78.10;;;;;;5008169;28;20029;-81
2022/06/03 07:14:28;;;;;;;5.85;3.40;;;15.70;78.10;;;;;;5016963;28;20024;-81
2022/06/03 07:20:05;;;;;;;5.85;3.08;;;15.80;78.10;;;;;;5034688;28;20044;-81
2022/06/03 07:22:44;;;;;;;8.70;3.63;;;15.90;78.00;;;;;;5034250;28;20481;-81
2022/06/03 07:25:22;;;;;;;4.32;2.47;;;15.90;77.90;;;;;;5016933;28;20025;-81
2022/06/03 07:27:56;;;;;;;4.25;2.25;;;16.00;77.80;;;;;;5017342;28;20033;-81
2022/06/03 07:30:34;;;;;;;4.55;2.85;;;16.10;77.60;;;;;;5016909;28;20057;-81
2022/06/03 07:33:31;;;;;;;5.28;3.00;;;16.10;77.40;;;;;;5033207;28;20025;-81
2022/06/03 07:36:01;;;;;;;5.32;3.03;;;16.20;77.30;;;;;;5028613;28;20099;-80
2022/06/03 07:38:45;;;;;;;4.03;2.63;;;16.30;77.10;;;;;;5017053;28;20488;-81
2022/06/03 07:41:47;;;;;;;7.53;3.13;;;16.40;77.70;;;;;;5016938;28;20033;-81
2022/06/03 07:44:39;;;;;;;4.80;2.35;;;16.40;76.90;;;;;;5005973;28;20036;-81
2022/06/03 07:47:08;;;;;;;6.40;2.30;;;16.50;76.70;;;;;;5016278;28;20021;-82
2022/06/03 07:49:43;;;;;;;4.47;2.88;;;16.50;76.50;;;;;;5016351;28;20021;-81
2022/06/03 07:52:32;;;;;;;5.40;2.83;;;16.60;76.40;;;;;;5016369;28;20017;-81
2022/06/03 07:55:05;;;;;;;5.35;2.70;;;16.70;76.30;;;;;;5015996;28;20018;-81
2022/06/03 07:57:33;;;;;;;7.75;2.10;;;16.80;76.20;;;;;;5034065;28;20057;-81
2022/06/03 08:00:05;;;;;;;5.70;2.15;;;16.90;76.20;;;;;;5016176;28;20057;-81
2022/06/03 08:02:31;;;;;;;6.80;2.78;;;16.90;76.00;;;;;;5015953;28;20036;-81
2022/06/03 08:05:18;;;;;;;4.72;2.13;;;17.00;75.90;;;;;;5016350;28;20354;-81
2022/06/03 08:10:57;;;;;;;7.18;2.25;;;17.20;75.70;;;;;;5033763;28;20068;-81
2022/06/03 08:13:24;;;;;;;9.43;2.58;;;17.30;75.60;;;;;;5016038;28;20021;-81
2022/06/03 08:16:05;;;;;;;5.88;2.25;;;17.30;75.50;;;;;;5016170;28;20021;-81
2022/06/03 08:18:40;;;;;;;4.03;1.88;;;17.40;75.30;;;;;;5016430;28;20017;-80
2022/06/03 08:21:21;;;;;;;2.97;1.52;;;17.50;74.80;;;;;;5016020;28;20519;-81
2022/06/03 08:23:47;;;;;;;4.35;1.75;;;17.60;74.50;;;;;;5015961;28;20460;-81
2022/06/03 08:26:21;;;;;;;6.03;1.95;;;17.70;74.40;;;;;;5015715;28;20116;-83
2022/06/03 08:29:19;;;;;;;4.20;1.40;;;17.80;74.10;;;;;;5031971;28;20022;-82
2022/06/03 08:31:45;;;;;;;3.75;1.60;;;17.80;73.80;;;;;;5015336;28;20116;-81
2022/06/03 08:34:37;;;;;;;3.75;1.60;;;18.00;73.70;;;;;;5015614;28;20017;-81
2022/06/03 08:37:04;;;;;;;2.90;1.05;;;18.10;73.40;;;;;;5033609;28;20117;-81
2022/06/03 08:39:33;;;;;;;3.20;1.20;;;18.20;73.30;;;;;;5015622;28;20083;-81
2022/06/03 08:42:21;;;;;;;5.47;1.13;;;18.30;73.40;;;;;;5032994;28;20120;-82
2022/06/03 08:45:03;;;;;;;2.35;0.90;;;18.30;73.00;;;;;;5034363;28;20017;-79
2022/06/03 08:47:44;;;;;;;2.63;0.93;;;18.40;72.70;;;;;;5015898;28;20022;-80
2022/06/03 08:50:21;;;;;;;4.22;1.23;;;18.50;72.60;;;;;;5034212;28;20488;-81
2022/06/03 08:53:18;;;;;;;5.00;1.33;;;18.60;72.40;;;;;;5016662;28;20461;-80
2022/06/03 08:55:56;;;;;;;2.20;1.00;;;18.70;72.10;;;;;;5035691;28;20044;-79
2022/06/03 08:58:38;;;;;;;5.57;1.15;;;18.80;71.70;;;;;;5017904;28;20028;-79
2022/06/03 09:01:11;;;;;;;2.13;1.05;;;18.90;71.50;;;;;;5020387;28;20203;-81
2022/06/03 09:03:50;;;;;;;2.65;0.98;;;19.00;71.00;;;;;;5037421;28;20060;-79
2022/06/03 09:06:33;;;;;;;2.13;0.80;;;19.10;70.60;;;;;;5021169;28;20033;-82
2022/06/03 09:09:28;;;;;;;2.85;1.10;;;19.20;70.50;;;;;;5023279;28;20063;-80
2022/06/03 09:11:57;;;;;;;2.40;0.85;;;19.30;70.40;;;;;;5003806;28;20401;-80
2022/06/03 09:14:27;;;;;;;1.85;0.80;;;19.50;70.00;;;;;;5023153;28;20025;-81
2022/06/03 09:16:58;;;;;;;2.67;0.95;;;19.60;69.90;;;;;;5022061;28;20076;-82
2022/06/03 09:19:30;;;;;;;2.17;0.85;;;19.70;70.00;;;;;;5022203;28;20041;-81
2022/06/03 09:22:00;;;;;;;2.50;0.93;;;19.80;68.70;;;;;;5019734;28;20039;-82
2022/06/03 09:24:31;;;;;;;2.75;0.68;;;19.90;68.80;;;;;;5017359;28;20400;-81
2022/06/03 09:26:59;;;;;;;2.75;0.80;;;20.00;67.90;;;;;;5016156;28;20043;-80
2022/06/03 09:29:26;;;;;;;2.20;0.80;;;20.10;67.00;;;;;;5016279;28;20022;-81
2022/06/03 09:32:00;;;;;;;3.22;0.80;;;20.20;66.50;;;;;;5033880;28;20068;-78
2022/06/03 09:34:41;;;;;;;4.40;0.90;;;20.30;66.10;;;;;;5033722;28;20021;-78
2022/06/03 09:37:20;;;;;;;4.10;1.05;;;20.50;65.40;;;;;;5015678;28;20044;-79
2022/06/03 09:39:48;;;;;;;2.50;0.80;;;20.50;65.10;;;;;;5015913;28;20014;-79
2022/06/03 09:42:17;;;;;;;1.50;0.70;;;20.60;64.90;;;;;;5032032;28;20040;-79
2022/06/03 09:44:45;;;;;;;3.92;0.93;;;20.70;64.00;;;;;;5034814;28;20108;-79
2022/06/03 09:47:14;;;;;;;2.78;0.70;;;20.80;63.70;;;;;;5036239;28;20029;-79
2022/06/03 09:49:39;;;;;;;2.30;0.80;;;20.90;63.50;;;;;;5037219;28;20029;-79
2022/06/03 09:52:12;;;;;;;1.33;0.68;;;21.00;63.10;;;;;;5019970;28;20032;-81
2022/06/03 09:54:40;;;;;;;3.28;0.95;;;21.00;63.00;;;;;;5018339;28;20018;-80
2022/06/03 09:57:22;;;;;;;2.55;0.70;;;21.10;62.60;;;;;;5014766;28;20053;-80
2022/06/03 09:59:57;;;;;;;4.30;0.98;;;21.10;61.30;;;;;;5011465;28;20033;-79
2022/06/03 10:02:24;;;;;;;2.55;0.80;;;21.20;61.00;;;;;;4999034;28;20048;-79
2022/06/03 10:04:50;;;;;;;1.42;0.52;;;21.30;61.00;;;;;;5017006;28;20028;-80
2022/06/03 10:07:16;;;;;;;2.33;0.50;;;21.40;61.00;;;;;;4982924;28;20112;-80
2022/06/03 10:12:49;;;;;;;3.53;0.70;;;21.60;60.30;;;;;;5016373;28;20076;-79
2022/06/03 10:15:39;;;;;;;1.35;0.60;;;21.70;59.60;;;;;;5031769;28;20032;-80
2022/06/03 10:18:14;;;;;;;1.80;0.70;;;21.80;59.50;;;;;;5031573;28;20040;-80
2022/06/03 10:20:41;;;;;;;2.83;1.00;;;21.90;59.70;;;;;;5032383;28;20041;-81
2022/06/03 10:23:08;;;;;;;1.60;0.73;;;21.90;58.50;;;;;;5032148;28;20141;-79
2022/06/03 10:25:38;;;;;;;4.35;0.88;;;22.00;58.00;;;;;;5017087;28;20398;-79
2022/06/03 10:28:06;;;;;;;1.83;0.70;;;22.20;57.40;;;;;;5032569;28;20029;-79
2022/06/03 10:30:36;;;;;;;3.28;0.80;;;22.40;57.10;;;;;;5028142;28;20014;-80
2022/06/03 10:33:04;;;;;;;3.13;0.80;;;22.60;57.10;;;;;;5009487;28;20056;-81
2022/06/03 10:35:36;;;;;;;1.90;0.70;;;22.80;56.90;;;;;;5029011;28;20017;-79
2022/06/03 10:38:06;;;;;;;4.38;0.70;;;23.00;56.60;;;;;;5025583;28;20034;-78
2022/06/03 10:40:39;;;;;;;2.13;0.90;;;23.20;55.80;;;;;;5009483;28;20060;-79
2022/06/03 10:43:09;;;;;;;1.75;0.77;;;23.60;55.20;;;;;;5026566;28;20100;-80
2022/06/03 10:45:37;;;;;;;2.88;0.60;;;23.90;54.30;;;;;;5035475;28;20022;-80
2022/06/03 10:48:28;;;;;;;3.83;0.85;;;24.30;53.70;;;;;;5017308;28;20036;-81
2022/06/03 10:51:11;;;;;;;1.73;0.60;;;24.80;52.60;;;;;;5035487;28;20031;-80
2022/06/03 11:01:57;;;;;;;1.15;0.50;;;25.20;52.70;;;;;;5035473;28;20036;-77
2022/06/03 11:04:38;;;;;;;1.67;0.50;;;25.20;52.10;;;;;;5035588;28;20024;-77
2022/06/03 11:07:36;;;;;;;2.35;0.60;;;25.30;51.80;;;;;;5017377;28;20029;-77
2022/06/03 11:10:15;;;;;;;1.52;0.50;;;25.50;51.20;;;;;;4996063;28;20113;-77
2022/06/03 11:12:43;;;;;;;3.97;0.60;;;25.70;51.00;;;;;;5017355;28;20442;-77
2022/06/03 11:15:42;;;;;;;2.20;0.60;;;25.90;51.00;;;;;;5017209;28;20025;-77
2022/06/03 11:18:16;;;;;;;2.00;0.50;;;26.10;50.10;;;;;;5034789;28;20033;-76
2022/06/03 11:20:42;;;;;;;;;;;26.30;50.00;;;;;;5017720;28;20048;-77
2022/06/03 11:23:10;;;;;;;1.77;0.50;;;26.40;50.10;;;;;;5000568;28;19921;-77
2022/06/03 11:25:39;;;;;;;1.08;0.45;;;26.60;50.20;;;;;;5020314;28;20021;-76
2022/06/03 11:28:38;;;;;;;1.00;0.50;;;26.80;49.60;;;;;;5026133;28;20010;-78
2022/06/03 11:31:07;;;;;;;1.60;0.50;;;27.00;48.20;;;;;;5034217;28;20029;-76
2022/06/03 11:33:45;;;;;;;2.78;0.85;;;27.00;48.40;;;;;;5016475;28;20338;-77
2022/06/03 11:36:31;;;;;;;1.13;0.57;;;27.20;47.50;;;;;;5033518;28;20029;-84
2022/06/03 11:39:17;;;;;;;1.00;0.50;;;27.20;47.20;;;;;;5033281;28;20366;-81
2022/06/03 11:42:07;;;;;;;3.60;0.50;;;27.40;46.20;;;;;;5016042;28;20425;-82
2022/06/03 11:44:43;;;;;;;1.92;0.38;;;27.70;45.70;;;;;;5034313;28;20100;-85
2022/06/03 11:47:16;;;;;;;1.80;0.47;;;27.90;45.70;;;;;;5015863;28;20021;-85
2022/06/03 11:49:42;;;;;;;1.90;0.35;;;28.10;45.40;;;;;;5016867;28;20025;-83
2022/06/03 11:52:08;;;;;;;1.83;0.50;;;28.30;45.30;;;;;;5017145;28;20026;-83
2022/06/03 11:54:34;;;;;;;0.90;0.40;;;28.40;45.10;;;;;;5034450;28;20037;-85
2022/06/03 11:57:02;;;;;;;1.90;0.57;;;28.60;45.10;;;;;;5016299;28;20518;-84
2022/06/03 11:59:44;;;;;;;1.58;0.50;;;28.70;44.40;;;;;;5016982;28;20025;-83
2022/06/03 12:02:17;;;;;;;3.15;0.40;;;28.70;43.30;;;;;;5016371;28;20029;-85
2022/06/03 12:04:47;;;;;;;1.00;0.50;;;28.90;43.40;;;;;;5034182;28;20462;-85
2022/06/03 12:07:41;;;;;;;1.27;0.30;;;29.10;43.40;;;;;;5033378;28;20053;-84
2022/06/03 12:10:34;;;;;;;0.47;0.30;;;29.30;42.40;;;;;;5016336;28;20369;-84
2022/06/03 12:13:27;;;;;;;2.38;0.40;;;29.60;42.20;;;;;;5016373;28;20035;-85
2022/06/03 12:15:58;;;;;;;1.75;0.45;;;29.90;41.90;;;;;;5034026;28;20492;-85
2022/06/03 12:18:34;;;;;;;1.02;0.40;;;30.00;41.90;;;;;;5016440;28;20440;-85
2022/06/03 12:21:06;;;;;;;1.80;0.32;;;30.30;41.00;;;;;;5033859;28;20385;-85
2022/06/03 12:23:38;;;;;;;1.17;0.40;;;30.40;41.10;;;;;;5016142;28;20014;-85
2022/06/03 12:26:13;;;;;;;1.77;0.40;;;30.60;40.80;;;;;;5016680;28;20465;-82
2022/06/03 12:28:42;;;;;;;1.50;0.30;;;30.80;40.60;;;;;;5033917;28;20064;-84
2022/06/03 12:31:07;;;;;;;3.50;0.65;;;30.90;40.50;;;;;;5034024;28;20472;-85
2022/06/03 12:34:03;;;;;;;5.47;0.50;;;31.00;40.40;;;;;;5015971;28;20029;-83
2022/06/03 12:36:47;;;;;;;1.27;0.60;;;31.10;39.90;;;;;;5016667;28;20025;-86
2022/06/03 12:39:19;;;;;;;1.15;0.60;;;31.30;39.50;;;;;;5034592;28;20021;-85
2022/06/03 12:41:45;;;;;;;0.75;0.50;;;31.50;39.70;;;;;;5015794;28;20087;-84
2022/06/03 12:44:41;;;;;;;1.23;0.40;;;31.50;39.70;;;;;;5015587;28;20026;-84
2022/06/03 12:47:34;;;;;;;2.40;0.50;;;31.60;38.90;;;;;;5015668;28;20031;-83
2022/06/03 12:50:24;;;;;;;2.33;0.50;;;31.70;38.80;;;;;;5015825;28;20109;-84
2022/06/03 12:53:13;;;;;;;2.92;0.40;;;31.80;38.30;;;;;;5015714;28;20384;-84
2022/06/03 12:55:42;;;;;;;2.72;0.50;;;31.90;38.50;;;;;;5022414;28;20071;-84
2022/06/03 12:58:14;;;;;;;1.52;0.50;;;31.90;38.40;;;;;;5015604;28;20120;-84
2022/06/03 13:00:55;;;;;;;0.82;0.40;;;31.90;38.40;;;;;;5015523;28;20076;-83
2022/06/03 13:03:24;;;;;;;1.80;0.38;;;31.90;38.20;;;;;;5015717;28;20033;-85
2022/06/03 13:05:54;;;;;;;1.25;0.40;;;32.10;38.70;;;;;;5015898;28;20028;-85
2022/06/03 13:08:29;;;;;;;1.05;0.47;;;32.20;38.40;;;;;;5015737;28;20116;-84
2022/06/03 13:10:57;;;;;;;1.02;0.40;;;32.40;37.80;;;;;;5015520;28;20021;-85
2022/06/03 13:13:29;;;;;;;1.42;0.45;;;32.50;37.90;;;;;;5016156;28;20025;-82
2022/06/03 13:16:17;;;;;;;2.40;0.30;;;32.60;37.80;;;;;;5016448;28;20028;-85
2022/06/03 13:18:44;;;;;;;0.75;0.40;;;32.60;37.80;;;;;;5016693;28;20024;-85
2022/06/03 13:21:12;;;;;;;0.65;0.40;;;32.80;38.10;;;;;;5036054;28;20115;-85
2022/06/03 13:23:47;;;;;;;0.70;0.30;;;32.80;38.00;;;;;;5019482;28;20381;-85
2022/06/03 13:26:22;;;;;;;0.70;0.40;;;32.80;37.70;;;;;;5019315;28;20489;-83
2022/06/03 13:28:49;;;;;;;0.80;0.40;;;32.80;37.40;;;;;;5020047;28;20028;-85
2022/06/03 13:31:21;;;;;;;0.63;0.40;;;32.80;37.60;;;;;;5037050;28;20029;-84
2022/06/03 13:34:08;;;;;;;1.13;0.45;;;32.80;37.20;;;;;;5019727;28;20058;-86
2022/06/03 13:36:38;;;;;;;3.60;0.50;;;33.00;36.90;;;;;;5019220;28;20022;-78
2022/06/03 13:39:07;;;;;;;1.83;0.40;;;33.10;37.10;;;;;;5019250;28;20052;-81
2022/06/03 13:45:09;;;;;;;2.67;0.65;;;33.30;36.50;;;;;;5036467;28;20614;-81
2022/06/03 13:47:36;;;;;;;1.48;0.40;;;33.50;36.60;;;;;;5018726;28;20025;-79
2022/06/03 13:50:12;;;;;;;1.65;0.30;;;33.50;36.70;;;;;;5018511;28;20032;-81
2022/06/03 13:52:40;;;;;;;2.08;0.40;;;33.50;36.70;;;;;;5018934;28;20030;-80
2022/06/03 13:55:25;;;;;;;2.47;0.47;;;33.40;36.30;;;;;;5018481;28;20030;-76
2022/06/03 13:57:55;;;;;;;3.03;0.25;;;33.40;35.80;;;;;;5018576;28;20398;-77
2022/06/03 14:00:40;;;;;;;4.65;0.43;;;33.30;35.90;;;;;;5018502;28;20175;-80
2022/06/03 14:03:14;;;;;;;1.33;0.40;;;33.40;35.60;;;;;;5018252;28;20032;-82
2022/06/03 14:06:01;;;;;;;1.83;0.50;;;33.40;35.70;;;;;;5018516;28;20067;-81
2022/06/03 14:08:35;;;;;;;2.25;0.30;;;33.40;35.80;;;;;;5018264;28;20080;-80
2022/06/03 14:11:05;;;;;;;0.65;0.40;;;33.30;35.80;;;;;;5036228;28;20014;-82
2022/06/03 14:13:46;;;;;;;1.38;0.35;;;33.30;35.80;;;;;;5036057;28;20040;-81
2022/06/03 14:16:18;;;;;;;2.10;0.40;;;33.20;35.80;;;;;;5018750;28;20013;-82
2022/06/03 14:19:12;;;;;;;2.45;0.40;;;33.10;35.80;;;;;;5018613;28;20021;-82
2022/06/03 14:21:37;;;;;;;;;;;33.10;35.70;;;;;;5018755;28;20026;-80